METAR Data
IDs: Format: Raw Decoded Include TAF

Data at: 0145 UTC 20 Jan 2022

KGXY 200127Z AUTO 14005KT OVC016 M08/M09 A3036 RMK AO2 PWINO FZRANO $
KGXY 200056Z AUTO 17005KT OVC010 M08/M09 A3036 RMK AO2 SLP338 T10781094 PWINO FZRANO $
KGXY 200009Z AUTO 14005KT BKN010 OVC014 M08/M09 A3034 RMK AO2 CIG 008V013 PWINO FZRANO $
KGXY 192356Z AUTO 12005KT OVC009 M08/M09 A3034 RMK AO2 CIG 007V012 SLP332 T10781089 11061 21078 52010 PWINO FZRANO $
KGXY 192256Z AUTO 13006KT OVC007 M07/M09 A3033 RMK AO2 CIG 006V009 SLP327 T10721089 PWINO FZRANO $
KGXY 192156Z AUTO 12006KT OVC007 M07/M08 A3031 RMK AO2 CIG 005V010 SLP318 T10671083 PWINO FZRANO $
KGXY 192056Z AUTO 14008KT OVC007 M07/M08 A3030 RMK AO2 CIG 005V009 SLP315 T10671083 58004 PWINO FZRANO $
KGXY 191956Z AUTO 11007KT OVC007 M07/M08 A3031 RMK AO2 CIG 004V010 SLP318 T10671083 PWINO FZRANO $
KGXY 191947Z AUTO 11009KT OVC007 M07/M08 A3031 RMK AO2 CIG 004V011 PWINO FZRANO $
KGXY 191856Z AUTO 12009KT OVC005 M07/M08 A3032 RMK AO2 SLP319 T10671078 PWINO FZRANO $
KGXY 191756Z AUTO 10011KT OVC005 M06/M08 A3032 RMK AO2 CIG 004V009 SLP314 T10611078 11039 21067 51027 PWINO FZRANO $
KGXY 191743Z AUTO 10013KT OVC005 M06/M08 A3032 RMK AO2 PWINO FZRANO $
KGXY 191656Z AUTO 11011KT OVC003 M06/M07 A3030 RMK AO2 SLP312 T10561067 PWINO FZRANO $
KGXY 191556Z AUTO 10011KT OVC003 M05/M06 A3026 RMK AO2 SLP294 T10501061 PWINO FZRANO $
KGXY 191456Z AUTO 11010KT OVC003 M05/M06 A3023 RMK AO2 SLP284 T10501061 53026 PWINO FZRANO $
KGXY 191444Z AUTO 11010KT OVC003 M05/M06 A3021 RMK AO2 PWINO FZRANO $
KGXY 191435Z AUTO 10010KT OVC005 M05/M06 A3021 RMK AO2 CIG 003V009 PWINO FZRANO $
KGXY 191356Z AUTO 10009KT OVC003 M04/M06 A3019 RMK AO2 SLP267 T10441056 PWINO FZRANO $
KGXY 191256Z AUTO 09008KT OVC003 M04/M05 A3016 RMK AO2 SLP255 T10391050 PWINO FZRANO $
KGXY 191219Z AUTO 10009KT OVC005 M04/M05 A3015 RMK AO2 PWINO FZRANO $
KGXY 191156Z AUTO 10009KT OVC007 M04/M05 A3014 RMK AO2 CIG 005V009 SLP247 T10391050 10000 21039 51013 PWINO FZRANO $
KGXY 191056Z AUTO 10006KT OVC009 M03/M04 A3014 RMK AO2 SLP243 T10281044 PWINO FZRANO $
KGXY 190956Z AUTO 13005KT OVC009 M02/M04 A3013 RMK AO2 SLP237 T10221039 PWINO FZRANO $
KGXY 190934Z AUTO 11007KT OVC009 M02/M04 A3012 RMK AO2 CIG 008V013 PWINO FZRANO $
KGXY 190856Z AUTO 10008KT OVC011 M02/M04 A3010 RMK AO2 SLP228 T10221039 51024 PWINO FZRANO $
KGXY 190827Z AUTO 09005KT OVC013 M02/M04 A3009 RMK AO2 PWINO FZRANO $
KGXY 190756Z AUTO 10005KT BKN017 OVC100 M03/M04 A3008 RMK AO2 SLP223 T10281044 PWINO FZRANO $
KGXY 190656Z AUTO 05009KT BKN110 M01/M03 A3005 RMK AO2 SLP209 T10111033 400281061 PWINO FZRANO $
KGXY 190556Z AUTO 02013KT OVC100 00/M03 A3001 RMK AO2 SLP196 T00001033 10017 21033 53021 PWINO FZRANO $
KGXY 190456Z AUTO 00000KT 10SM BKN090 BKN110 M03/M05 A2999 RMK AO2 SLP193 T10281050 FZRANO
KGXY 190356Z AUTO 12004KT 10SM OVC110 M01/M04 A2997 RMK AO2 SLP187 T10111044 FZRANO
KGXY 190256Z AUTO 27008KT 10SM BKN100 M02/M04 A2994 RMK AO2 SLP180 T10171044 53022 FZRANO
KGXY 190156Z AUTO 03003KT CLR 00/M05 A2990 RMK AO2 SLP166 T00001050 PWINO FZRANO $
KGXY 190056Z AUTO 08004KT CLR 00/M03 A2989 RMK AO2 SLP162 T00001033 PWINO FZRANO $
KGXY 182356Z AUTO 06003KT 10SM CLR 01/M03 A2987 RMK AO2 SLP154 T00061028 10028 21006 53016 FZRANO
KGXY 182256Z AUTO 08003KT 10SM CLR 02/M02 A2985 RMK AO2 SLP145 T00171022 FZRANO
KGXY 182156Z AUTO 08004KT 10SM CLR 02/M02 A2982 RMK AO2 SLP134 T00171022 FZRANO
KGXY 182056Z AUTO 09004KT 10SM CLR 01/M02 A2982 RMK AO2 SLP135 T00111022 56013 FZRANO
KGXY 181956Z AUTO 13003KT 10SM CLR 02/M02 A2982 RMK AO2 SLP134 T00171022 FZRANO
KGXY 181856Z AUTO 17003KT 10SM CLR 01/M03 A2983 RMK AO2 SLP137 T00061028 FZRANO
KGXY 181756Z AUTO 09003KT 10SM CLR M01/M03 A2986 RMK AO2 SLP149 T10061028 11006 21056 50007 FZRANO
KGXY 181656Z AUTO 22004KT 10SM CLR M01/M04 A2986 RMK AO2 SLP154 T10111039 FZRANO
KGXY 181556Z AUTO 28003KT 10SM CLR M03/M04 A2984 RMK AO2 SLP148 T10281044 FZRANO
KGXY 181456Z AUTO 24007KT 10SM CLR M03/M05 A2983 RMK AO2 SLP144 T10331050 51007 FZRANO
KGXY 181356Z AUTO 25005KT 10SM CLR M04/M06 A2982 RMK AO2 SLP138 T10441056 FZRANO